createdAt,value
2022-08-08T00:09:52.965Z,13
2022-08-08T00:21:09.185Z,14
2022-08-08T00:32:46.699Z,12
2022-08-08T00:45:32.704Z,11
2022-08-08T00:56:49.462Z,11
2022-08-08T01:08:52.703Z,12
2022-08-08T01:20:02.868Z,14
2022-08-08T01:30:54.144Z,15
2022-08-08T01:41:19.893Z,15
2022-08-08T01:58:13.970Z,15
2022-08-08T02:08:34.235Z,17
2022-08-08T02:18:41.399Z,15
2022-08-08T02:30:26.128Z,14
2022-08-08T02:41:58.256Z,15
2022-08-08T02:53:51.422Z,16
2022-08-08T03:05:56.273Z,15
2022-08-08T03:17:41.062Z,13
2022-08-08T03:27:58.658Z,13
2022-08-08T03:40:03.863Z,14
2022-08-08T03:52:36.040Z,21
2022-08-08T04:05:29.314Z,15
2022-08-08T04:16:05.559Z,15
2022-08-08T04:26:56.958Z,15
2022-08-08T04:38:03.407Z,14
2022-08-08T04:48:31.260Z,14
2022-08-08T05:00:02.725Z,14
2022-08-08T05:10:18.024Z,12
2022-08-08T05:22:00.610Z,13
2022-08-08T05:32:58.282Z,12
2022-08-08T05:44:03.105Z,14
2022-08-08T05:57:09.497Z,12
2022-08-08T06:09:59.241Z,9
2022-08-08T06:20:21.317Z,12
2022-08-08T06:31:20.225Z,11
2022-08-08T06:42:33.518Z,12
2022-08-08T06:52:43.530Z,11
2022-08-08T07:04:45.334Z,13
2022-08-08T07:14:52.179Z,13
2022-08-08T07:25:38.173Z,12
2022-08-08T07:35:59.243Z,11
2022-08-08T07:47:07.692Z,12
2022-08-08T07:57:25.888Z,9
2022-08-08T08:07:59.394Z,14
2022-08-08T08:18:33.270Z,12
2022-08-08T09:24:14.084Z,10
2022-08-08T09:35:51.007Z,8
2022-08-08T10:00:49.580Z,9
2022-08-08T10:12:31.658Z,7
2022-08-08T10:22:55.434Z,9
2022-08-08T10:34:21.112Z,9
2022-08-08T10:44:41.114Z,9
2022-08-08T10:55:13.965Z,8
2022-08-08T11:06:00.556Z,8
2022-08-08T11:18:02.354Z,6
2022-08-08T11:28:21.812Z,6
2022-08-08T11:40:09.016Z,7
2022-08-08T11:50:30.240Z,8
2022-08-08T12:00:53.979Z,6
2022-08-08T12:10:54.092Z,8
2022-08-08T12:21:00.266Z,7
2022-08-08T12:31:19.905Z,9
2022-08-08T12:42:05.389Z,9
2022-08-08T12:53:42.089Z,9
2022-08-08T13:03:52.291Z,8
2022-08-08T13:13:55.987Z,8
2022-08-08T13:25:30.396Z,6
2022-08-08T13:35:47.033Z,7
2022-08-08T13:45:54.969Z,6
2022-08-08T13:58:40.660Z,7
2022-08-08T14:10:02.668Z,8
2022-08-08T14:22:10.839Z,6
2022-08-08T14:33:26.141Z,7
2022-08-08T14:45:10.625Z,8
2022-08-08T14:55:43.537Z,5
2022-08-08T15:06:32.733Z,13
2022-08-08T15:17:08.604Z,13
2022-08-08T15:28:32.449Z,7
2022-08-08T15:38:50.894Z,6
2022-08-08T15:49:07.462Z,8
2022-08-08T16:00:26.433Z,9
2022-08-08T16:14:33.960Z,9
2022-08-08T16:24:32.002Z,10
2022-08-08T16:34:48.670Z,9
2022-08-08T18:20:59.166Z,8
2022-08-08T18:55:11.505Z,28
2022-08-08T19:06:05.926Z,25
2022-08-08T19:16:31.847Z,24
2022-08-08T19:29:07.273Z,17
2022-08-08T19:39:04.725Z,13
2022-08-08T19:50:02.395Z,9
2022-08-08T20:00:30.891Z,12
2022-08-08T20:11:22.323Z,12
2022-08-08T20:23:16.634Z,12
2022-08-08T20:35:02.345Z,16
2022-08-08T20:45:02.955Z,11
2022-08-08T20:55:51.855Z,13
2022-08-08T21:05:59.954Z,11
2022-08-08T21:17:28.472Z,13
2022-08-08T21:28:46.948Z,11
2022-08-08T21:39:57.408Z,10
2022-08-08T21:49:34.283Z,10
2022-08-08T21:57:20.992Z,10
2022-08-08T22:07:40.388Z,9
2022-08-08T22:17:46.008Z,10
2022-08-08T22:31:01.123Z,9
2022-08-08T22:41:54.281Z,11
2022-08-08T22:52:06.137Z,9
2022-08-08T23:03:17.351Z,10
2022-08-08T23:14:01.572Z,12
2022-08-08T23:25:18.523Z,11
2022-08-08T23:36:09.254Z,13
2022-08-08T23:50:06.187Z,9
